createdAt,value
2018-09-10T00:01:37.337Z,76.34
2018-09-10T00:04:06.247Z,76.34
2018-09-10T00:06:35.164Z,76.93
2018-09-10T00:09:05.830Z,77.53
2018-09-10T00:11:34.765Z,77.06
2018-09-10T00:14:03.761Z,77.60
2018-09-10T00:16:32.795Z,78.59
2018-09-10T00:19:01.776Z,77.52
2018-09-10T00:21:30.701Z,78.60
2018-09-10T00:23:59.617Z,78.72
2018-09-10T00:26:28.533Z,77.85
2018-09-10T00:28:57.450Z,78.74
2018-09-10T00:31:26.375Z,79.15
2018-09-10T00:33:55.281Z,79.70
2018-09-10T00:36:30.680Z,79.17
2018-09-10T00:38:59.683Z,79.56
2018-09-10T00:41:28.650Z,79.48
2018-09-10T00:43:57.567Z,79.96
2018-09-10T00:46:26.483Z,79.76
2018-09-10T00:48:55.431Z,80.42
2018-09-10T00:51:24.350Z,79.77
2018-09-10T00:53:53.250Z,79.99
2018-09-10T00:56:22.197Z,80.33
2018-09-10T00:58:51.622Z,80.00
2018-09-10T01:01:20.604Z,80.11
2018-09-10T01:03:49.821Z,80.32
2018-09-10T01:06:18.750Z,79.75
2018-09-10T01:08:47.694Z,80.83
2018-09-10T01:11:16.649Z,80.79
2018-09-10T01:13:45.596Z,81.61
2018-09-10T01:16:14.561Z,81.26
2018-09-10T01:18:43.487Z,80.98
2018-09-10T01:21:12.405Z,81.29
2018-09-10T01:23:41.379Z,81.35
2018-09-10T01:26:10.313Z,80.84
2018-09-10T01:28:39.236Z,81.48
2018-09-10T01:31:08.192Z,82.16
2018-09-10T01:33:42.407Z,82.49
2018-09-10T01:36:11.333Z,82.65
2018-09-10T01:38:40.222Z,83.26
2018-09-10T01:41:09.166Z,83.33
2018-09-10T01:43:38.115Z,83.30
2018-09-10T01:46:07.030Z,84.06
2018-09-10T01:48:35.928Z,83.15
2018-09-10T01:51:04.920Z,84.26
2018-09-10T01:53:33.812Z,83.43
2018-09-10T01:56:02.773Z,83.04
2018-09-10T01:58:31.745Z,84.41
2018-09-10T02:01:00.687Z,85.33
2018-09-10T02:03:29.764Z,85.75
2018-09-10T02:05:58.737Z,85.37
2018-09-10T02:08:27.660Z,85.09
2018-09-10T02:10:56.614Z,85.61
2018-09-10T02:13:25.521Z,85.39
2018-09-10T02:15:54.432Z,84.81
2018-09-10T02:18:23.441Z,85.64
2018-09-10T02:20:52.366Z,86.02
2018-09-10T02:23:21.274Z,85.36
2018-09-10T02:25:50.199Z,85.55
2018-09-10T02:28:19.130Z,84.89
2018-09-10T02:30:48.141Z,85.92
2018-09-10T02:33:17.039Z,86.14
2018-09-10T02:35:45.970Z,86.62
2018-09-10T02:38:14.888Z,86.49
2018-09-10T02:40:43.811Z,86.32
2018-09-10T02:43:12.709Z,86.67
2018-09-10T02:45:41.632Z,86.66
2018-09-10T02:48:10.537Z,86.91
2018-09-10T02:50:39.457Z,87.25
2018-09-10T02:53:08.412Z,87.12
2018-09-10T02:55:37.351Z,86.87
2018-09-10T02:58:06.344Z,87.36
2018-09-10T03:00:35.281Z,87.90
2018-09-10T03:03:04.200Z,87.37
2018-09-10T03:05:33.114Z,88.08
2018-09-10T03:08:02.009Z,88.13
2018-09-10T03:10:30.913Z,88.29
2018-09-10T03:12:59.825Z,87.92
2018-09-10T03:15:28.745Z,88.07
2018-09-10T03:17:57.768Z,88.08
2018-09-10T03:20:27.137Z,88.60
2018-09-10T03:22:56.056Z,88.78
2018-09-10T03:25:24.967Z,88.45
2018-09-10T03:27:53.962Z,88.63
2018-09-10T03:30:22.858Z,88.72
2018-09-10T03:32:51.812Z,89.03
2018-09-10T03:35:20.723Z,88.54
2018-09-10T03:37:49.630Z,89.21
2018-09-10T03:40:18.574Z,90.18
2018-09-10T03:42:47.492Z,88.77
2018-09-10T03:45:16.456Z,89.25
2018-09-10T03:47:45.410Z,88.79
2018-09-10T03:50:14.347Z,89.10
2018-09-10T03:52:43.273Z,88.90
2018-09-10T03:55:12.208Z,89.72
2018-09-10T03:57:41.154Z,89.90
2018-09-10T04:00:10.114Z,90.08
2018-09-10T04:02:39.048Z,89.88
2018-09-10T04:05:08.458Z,90.09
2018-09-10T04:07:37.645Z,90.38
2018-09-10T04:10:06.599Z,90.48
2018-09-10T04:12:35.535Z,89.94
2018-09-10T04:15:04.683Z,90.22
2018-09-10T04:17:33.748Z,90.35
2018-09-10T04:20:06.893Z,90.17
2018-09-10T04:22:35.913Z,90.34
2018-09-10T04:25:04.995Z,90.81
2018-09-10T04:27:34.492Z,90.43
2018-09-10T04:30:03.473Z,90.70
2018-09-10T04:32:32.399Z,90.45
2018-09-10T04:35:01.312Z,91.19
2018-09-10T04:37:30.226Z,90.88
2018-09-10T04:39:59.215Z,89.88
2018-09-10T04:42:28.139Z,90.33
2018-09-10T04:44:57.043Z,90.43
2018-09-10T04:47:26.041Z,90.58
2018-09-10T04:49:54.988Z,90.23
2018-09-10T04:52:23.905Z,90.72
2018-09-10T04:54:52.830Z,90.16
2018-09-10T04:57:21.744Z,90.11
2018-09-10T04:59:50.669Z,90.65
2018-09-10T05:02:19.642Z,90.17
2018-09-10T05:04:48.550Z,90.57
2018-09-10T05:07:17.460Z,89.75
2018-09-10T05:09:46.442Z,87.97
2018-09-10T05:12:15.321Z,88.40
2018-09-10T05:14:44.239Z,87.99
2018-09-10T05:17:13.150Z,87.47
2018-09-10T05:19:42.051Z,87.66
2018-09-10T05:22:11.112Z,86.96
2018-09-10T05:24:40.010Z,86.58
2018-09-10T05:27:08.916Z,86.32
2018-09-10T05:29:37.904Z,86.36
2018-09-10T05:32:06.826Z,86.30
2018-09-10T05:34:35.826Z,85.37
2018-09-10T05:37:04.726Z,84.86
2018-09-10T05:39:33.616Z,83.79
2018-09-10T05:42:02.540Z,83.54
2018-09-10T05:44:31.451Z,83.90
2018-09-10T05:47:00.358Z,83.00
2018-09-10T05:49:29.267Z,82.14
2018-09-10T05:51:58.189Z,81.73
2018-09-10T05:54:27.120Z,81.37
2018-09-10T05:56:56.045Z,80.67
2018-09-10T05:59:24.961Z,80.09
2018-09-10T06:01:53.896Z,77.45
2018-09-10T06:04:22.834Z,74.77
2018-09-10T06:06:51.917Z,71.40
2018-09-10T06:09:20.830Z,69.94
2018-09-10T06:11:49.760Z,67.40
2018-09-10T06:14:18.672Z,66.57
2018-09-10T06:16:47.616Z,63.44
2018-09-10T06:19:16.490Z,61.62
2018-09-10T06:21:45.434Z,60.68
2018-09-10T06:24:14.349Z,58.87
2018-09-10T06:26:43.240Z,57.33
2018-09-10T06:29:12.201Z,55.22
2018-09-10T06:31:41.093Z,54.82
2018-09-10T06:34:10.022Z,58.16
2018-09-10T06:36:38.930Z,57.39
2018-09-10T06:39:10.295Z,59.41
2018-09-10T06:41:39.214Z,59.24
2018-09-10T06:44:08.487Z,60.90
2018-09-10T06:46:37.583Z,62.20
2018-09-10T06:49:06.488Z,62.65
2018-09-10T06:51:35.708Z,62.00
2018-09-10T06:54:04.656Z,61.78
2018-09-10T06:56:33.634Z,63.08
2018-09-10T06:59:02.642Z,61.52
2018-09-10T07:01:31.481Z,60.55
2018-09-10T07:04:00.381Z,60.03
2018-09-10T07:06:36.085Z,57.69
2018-09-10T07:09:07.611Z,57.54
2018-09-10T07:11:36.845Z,56.20
2018-09-10T07:14:05.757Z,56.86
2018-09-10T07:16:34.926Z,54.75
2018-09-10T07:19:04.031Z,51.96
2018-09-10T07:21:32.829Z,50.39
2018-09-10T07:24:01.771Z,47.53
2018-09-10T07:26:30.793Z,48.13
2018-09-10T07:28:59.715Z,48.09
2018-09-10T07:31:28.864Z,45.56
2018-09-10T07:33:57.790Z,45.69
2018-09-10T07:36:26.724Z,45.97
2018-09-10T07:38:55.856Z,46.67
2018-09-10T07:41:25.508Z,45.49
2018-09-10T07:43:54.575Z,44.81
2018-09-10T07:46:23.464Z,41.37
2018-09-10T07:48:52.455Z,40.74
2018-09-10T07:51:21.531Z,41.77
2018-09-10T07:53:50.650Z,39.54
2018-09-10T07:56:19.588Z,38.80
2018-09-10T07:58:48.512Z,40.03
2018-09-10T08:01:18.012Z,39.10
2018-09-10T08:03:46.938Z,37.14
2018-09-10T08:06:15.857Z,37.65
2018-09-10T08:08:44.790Z,39.72
2018-09-10T08:11:13.899Z,40.09
2018-09-10T08:13:42.820Z,37.44
2018-09-10T08:16:12.029Z,37.14
2018-09-10T08:18:40.955Z,36.78
2018-09-10T08:21:09.889Z,37.05
2018-09-10T08:23:38.781Z,34.70
2018-09-10T08:26:07.735Z,34.13
2018-09-10T08:28:36.658Z,34.13
2018-09-10T08:31:05.966Z,34.26
2018-09-10T08:33:34.892Z,34.23
2018-09-10T08:36:03.862Z,33.47
2018-09-10T08:38:32.807Z,34.43
2018-09-10T08:41:02.060Z,35.39
2018-09-10T08:43:30.989Z,37.84
2018-09-10T08:45:59.891Z,35.26
2018-09-10T08:48:28.804Z,32.91
2018-09-10T08:50:57.732Z,32.34
2018-09-10T08:53:26.651Z,33.21
2018-09-10T08:55:56.055Z,31.97
2018-09-10T08:58:24.674Z,31.11
2018-09-10T09:00:53.614Z,30.53
2018-09-10T09:03:22.570Z,32.70
2018-09-10T09:05:51.487Z,30.72
2018-09-10T09:08:20.418Z,30.04
2018-09-10T09:10:49.318Z,30.37
2018-09-10T09:13:18.240Z,30.67
2018-09-10T09:15:47.229Z,29.35
2018-09-10T09:18:16.157Z,30.37
2018-09-10T09:20:45.082Z,32.45
2018-09-10T09:23:14.141Z,28.86
2018-09-10T09:25:43.008Z,28.43
2018-09-10T09:28:11.934Z,26.81
2018-09-10T09:30:40.957Z,28.89
2018-09-10T09:33:09.892Z,28.71
2018-09-10T09:35:44.200Z,27.95
2018-09-10T09:38:18.585Z,27.11
2018-09-10T09:40:52.889Z,27.41
2018-09-10T09:43:27.262Z,30.07
2018-09-10T09:46:01.634Z,28.02
2018-09-10T09:48:30.561Z,28.55
2018-09-10T09:50:59.489Z,28.97
2018-09-10T09:53:28.409Z,28.52
2018-09-10T09:55:57.395Z,28.26
2018-09-10T09:58:26.318Z,27.56
2018-09-10T10:01:00.627Z,27.14
2018-09-10T10:03:35.272Z,28.46
2018-09-10T10:06:04.249Z,29.20
2018-09-10T10:08:33.162Z,28.95
2018-09-10T10:11:02.133Z,29.29
2018-09-10T10:13:31.129Z,29.91
2018-09-10T10:16:00.073Z,29.81
2018-09-10T10:18:29.146Z,29.73
2018-09-10T10:20:58.118Z,30.76
2018-09-10T10:23:27.089Z,30.52
2018-09-10T10:25:55.992Z,30.43
2018-09-10T10:28:25.009Z,29.33
2018-09-10T10:30:53.958Z,28.61
2018-09-10T10:33:22.856Z,31.15
2018-09-10T10:35:51.824Z,29.10
2018-09-10T10:38:20.834Z,29.52
2018-09-10T10:40:49.778Z,29.78
2018-09-10T10:43:18.701Z,29.61
2018-09-10T10:45:47.596Z,30.30
2018-09-10T10:48:16.546Z,30.10
2018-09-10T10:50:45.474Z,30.77
2018-09-10T10:53:14.426Z,30.11
2018-09-10T10:55:43.339Z,31.56
2018-09-10T10:58:12.696Z,29.97
2018-09-10T11:00:41.621Z,29.68
2018-09-10T11:03:10.546Z,31.46
2018-09-10T11:05:39.490Z,27.92
2018-09-10T11:08:08.416Z,30.39
2018-09-10T11:10:37.307Z,28.24
2018-09-10T11:13:06.249Z,28.66
2018-09-10T11:15:35.167Z,27.56
2018-09-10T11:18:04.095Z,26.82
2018-09-10T11:20:32.993Z,26.91
2018-09-10T11:23:01.926Z,26.57
2018-09-10T11:25:30.854Z,26.32
2018-09-10T11:27:59.775Z,27.24
2018-09-10T11:30:28.672Z,27.09
2018-09-10T11:32:57.590Z,27.42
2018-09-10T11:35:26.523Z,29.14
2018-09-10T11:37:55.424Z,28.72
2018-09-10T11:40:24.362Z,29.45
2018-09-10T11:42:53.244Z,31.24
2018-09-10T11:45:22.180Z,31.26
2018-09-10T11:47:51.091Z,30.30
2018-09-10T11:50:19.984Z,29.25
2018-09-10T11:52:48.982Z,28.91
2018-09-10T11:55:17.949Z,29.55
2018-09-10T11:57:46.888Z,28.42
2018-09-10T12:00:15.795Z,29.35
2018-09-10T12:02:44.727Z,30.35
2018-09-10T12:05:13.642Z,31.20
2018-09-10T12:07:42.572Z,27.99
2018-09-10T12:10:11.529Z,28.40
2018-09-10T12:12:40.431Z,27.93
2018-09-10T12:15:09.353Z,26.87
2018-09-10T12:17:38.284Z,26.20
2018-09-10T12:20:07.239Z,25.45
2018-09-10T12:22:36.159Z,24.94
2018-09-10T12:25:05.088Z,24.66
2018-09-10T12:27:34.033Z,25.66
2018-09-10T12:30:02.963Z,24.43
2018-09-10T12:32:31.924Z,23.52
2018-09-10T12:35:00.801Z,23.90
2018-09-10T12:37:29.789Z,24.02
2018-09-10T12:39:58.688Z,23.84
2018-09-10T12:42:27.598Z,23.62
2018-09-10T12:44:56.676Z,24.24
2018-09-10T12:47:25.604Z,24.74
2018-09-10T12:49:54.604Z,25.23
2018-09-10T12:52:23.502Z,26.01
2018-09-10T12:54:52.409Z,25.03
2018-09-10T12:57:21.336Z,24.71
2018-09-10T12:59:50.409Z,24.14
2018-09-10T13:02:19.323Z,22.63
2018-09-10T13:04:48.282Z,23.93
2018-09-10T13:07:17.262Z,23.68
2018-09-10T13:09:46.233Z,22.32
2018-09-10T13:12:15.239Z,23.61
2018-09-10T13:14:44.182Z,23.90
2018-09-10T13:17:13.135Z,24.97
2018-09-10T13:19:42.075Z,24.59
2018-09-10T13:22:10.992Z,23.78
2018-09-10T13:24:39.924Z,23.40
2018-09-10T13:27:08.897Z,23.16
2018-09-10T13:29:37.838Z,24.98
2018-09-10T13:32:06.735Z,24.86
2018-09-10T13:34:35.648Z,26.13
2018-09-10T13:37:04.566Z,24.58
2018-09-10T13:39:33.539Z,24.07
2018-09-10T13:42:02.474Z,23.16
2018-09-10T13:44:31.410Z,23.94
2018-09-10T13:47:00.339Z,24.05
2018-09-10T13:49:29.259Z,23.19
2018-09-10T13:51:58.168Z,22.71
2018-09-10T13:54:27.257Z,23.36
2018-09-10T13:56:56.225Z,22.88
2018-09-10T13:59:25.129Z,24.07
2018-09-10T14:01:54.038Z,26.30
2018-09-10T14:04:22.972Z,25.40
2018-09-10T14:06:51.993Z,26.51
2018-09-10T14:09:20.930Z,27.27
2018-09-10T14:11:50.697Z,28.88
2018-09-10T14:14:19.614Z,29.68
2018-09-10T14:16:48.653Z,27.25
2018-09-10T14:19:17.567Z,30.09
2018-09-10T14:21:46.492Z,27.88
2018-09-10T14:24:15.415Z,29.67
2018-09-10T14:26:44.364Z,30.23
2018-09-10T14:29:13.273Z,28.34
2018-09-10T14:31:42.168Z,26.34
2018-09-10T14:34:11.372Z,27.00
2018-09-10T14:36:40.306Z,27.79
2018-09-10T14:39:09.695Z,29.76
2018-09-10T14:41:38.637Z,27.73
2018-09-10T14:44:07.572Z,29.04
2018-09-10T14:46:36.572Z,28.56
2018-09-10T14:49:05.511Z,29.65
2018-09-10T14:51:34.444Z,28.38
2018-09-10T14:54:03.375Z,27.09
2018-09-10T14:56:32.313Z,28.23
2018-09-10T14:59:01.234Z,27.48
2018-09-10T15:01:30.253Z,30.77
2018-09-10T15:03:59.165Z,27.30
2018-09-10T15:06:28.080Z,28.28
2018-09-10T15:08:57.144Z,27.84
2018-09-10T15:11:26.037Z,27.58
2018-09-10T15:13:54.954Z,27.28
2018-09-10T15:16:23.892Z,27.90
2018-09-10T15:18:53.089Z,28.79
2018-09-10T15:21:21.889Z,29.13
2018-09-10T15:23:50.852Z,29.01
2018-09-10T15:26:19.773Z,28.97
2018-09-10T15:28:48.684Z,32.39
2018-09-10T15:31:17.677Z,30.46
2018-09-10T15:33:46.592Z,32.30
2018-09-10T15:36:15.561Z,30.71
2018-09-10T15:38:44.610Z,32.47
2018-09-10T15:41:13.808Z,31.53
2018-09-10T15:43:42.761Z,31.83
2018-09-10T15:46:11.722Z,31.42
2018-09-10T15:48:40.704Z,31.07
2018-09-10T15:51:10.484Z,31.58
2018-09-10T15:53:39.453Z,30.52
2018-09-10T15:56:08.400Z,30.82
2018-09-10T15:58:37.330Z,32.46
2018-09-10T16:01:06.593Z,32.67
2018-09-10T16:03:35.542Z,33.61
2018-09-10T16:06:04.466Z,33.09
2018-09-10T16:08:33.493Z,32.89
2018-09-10T16:11:02.851Z,33.72
2018-09-10T16:13:31.773Z,33.00
2018-09-10T16:16:00.702Z,33.95
2018-09-10T16:18:29.609Z,33.54
2018-09-10T16:20:58.664Z,33.91
2018-09-10T16:23:27.593Z,34.22
2018-09-10T16:25:56.546Z,34.82
2018-09-10T16:28:25.464Z,35.07
2018-09-10T16:30:54.437Z,35.56
2018-09-10T16:33:23.354Z,36.64
2018-09-10T16:35:52.314Z,35.72
2018-09-10T16:38:21.251Z,35.03
2018-09-10T16:40:50.186Z,35.58
2018-09-10T16:43:19.101Z,36.08
2018-09-10T16:45:48.028Z,37.43
2018-09-10T16:48:16.946Z,37.04
2018-09-10T16:50:45.863Z,37.44
2018-09-10T16:53:14.765Z,38.02
2018-09-10T16:55:43.776Z,38.02
2018-09-10T16:58:13.074Z,38.48
2018-09-10T17:00:42.046Z,38.76
2018-09-10T17:03:10.987Z,39.78
2018-09-10T17:05:40.054Z,40.44
2018-09-10T17:08:09.171Z,40.91
2018-09-10T17:10:39.370Z,41.29
2018-09-10T17:13:08.808Z,42.42
2018-09-10T17:15:37.864Z,41.78
2018-09-10T17:18:09.049Z,41.68
2018-09-10T17:20:38.056Z,42.22
2018-09-10T17:23:07.649Z,44.73
2018-09-10T17:25:36.599Z,42.11
2018-09-10T17:28:06.734Z,44.09
2018-09-10T17:30:36.121Z,42.74
2018-09-10T17:33:05.200Z,42.80
2018-09-10T17:35:34.148Z,43.48
2018-09-10T17:38:03.618Z,43.95
2018-09-10T17:40:33.019Z,44.86
2018-09-10T17:43:03.444Z,44.73
2018-09-10T17:45:34.060Z,46.61
2018-09-10T17:48:03.385Z,46.35
2018-09-10T17:50:32.795Z,44.37
2018-09-10T17:53:02.478Z,47.42
2018-09-10T17:55:32.200Z,45.84
2018-09-10T17:58:04.162Z,47.51
2018-09-10T18:00:38.438Z,46.78
2018-09-10T18:03:09.771Z,46.47
2018-09-10T18:05:41.957Z,45.21
2018-09-10T18:08:11.094Z,44.63
2018-09-10T18:10:40.775Z,44.98
2018-09-10T18:13:10.407Z,46.47
2018-09-10T18:15:48.310Z,45.34
2018-09-10T18:18:19.160Z,46.66
2018-09-10T18:23:39.556Z,47.51
2018-09-10T18:26:12.030Z,46.86
2018-09-10T18:28:43.257Z,49.06
2018-09-10T18:31:13.289Z,46.94
2018-09-10T18:33:44.462Z,48.80
2018-09-10T18:36:13.472Z,47.55
2018-09-10T18:38:44.622Z,47.99
2018-09-10T18:41:13.563Z,48.68
2018-09-10T18:43:43.557Z,46.69
2018-09-10T18:46:13.700Z,47.21
2018-09-10T18:48:46.016Z,46.75
2018-09-10T18:51:17.119Z,47.23
2018-09-10T18:53:47.017Z,48.19
2018-09-10T18:56:17.969Z,48.00
2018-09-10T18:58:48.423Z,47.28
2018-09-10T19:01:20.121Z,47.75
2018-09-10T19:03:49.525Z,47.55
2018-09-10T19:06:18.549Z,49.71
2018-09-10T19:08:47.537Z,48.08
2018-09-10T19:11:16.550Z,49.36
2018-09-10T19:13:45.501Z,48.85
2018-09-10T19:16:14.533Z,48.29
2018-09-10T19:18:43.511Z,48.42
2018-09-10T19:21:12.746Z,50.04
2018-09-10T19:26:11.420Z,48.36
2018-09-10T19:28:40.730Z,49.56
2018-09-10T19:31:09.856Z,48.65
2018-09-10T19:33:38.950Z,48.79
2018-09-10T19:36:07.859Z,47.97
2018-09-10T19:38:43.219Z,50.02
2018-09-10T19:41:14.587Z,50.64
2018-09-10T19:43:44.579Z,47.84
2018-09-10T19:46:13.893Z,50.42
2018-09-10T19:48:42.989Z,51.03
2018-09-10T19:51:11.949Z,48.91
2018-09-10T19:53:40.856Z,50.85
2018-09-10T19:56:09.835Z,48.68
2018-09-10T19:58:38.789Z,50.09
2018-09-10T20:01:07.769Z,50.16
2018-09-10T20:03:40.763Z,48.83
2018-09-10T20:06:11.797Z,51.38
2018-09-10T20:08:41.524Z,49.84
2018-09-10T20:11:13.548Z,48.48
2018-09-10T20:13:44.312Z,50.43
2018-09-10T20:16:13.331Z,50.81
2018-09-10T20:18:43.951Z,49.29
2018-09-10T20:21:12.921Z,50.46
2018-09-10T20:23:41.890Z,50.45
2018-09-10T20:26:11.083Z,51.51
2018-09-10T20:28:40.943Z,51.25
2018-09-10T20:31:12.678Z,51.76
2018-09-10T20:33:54.062Z,51.59
2018-09-10T20:36:23.977Z,51.85
2018-09-10T20:38:53.789Z,50.16
2018-09-10T20:41:24.033Z,51.42
2018-09-10T20:43:53.209Z,52.27
2018-09-10T20:46:23.554Z,52.88
2018-09-10T20:48:54.575Z,50.59
2018-09-10T20:51:23.901Z,51.66
2018-09-10T20:53:52.847Z,53.37
2018-09-10T20:56:22.705Z,53.51
2018-09-10T20:58:51.773Z,51.41
2018-09-10T21:01:21.692Z,52.14
2018-09-10T21:03:50.922Z,53.80
2018-09-10T21:06:20.049Z,52.52
2018-09-10T21:08:49.715Z,51.56
2018-09-10T21:11:20.339Z,53.03
2018-09-10T21:13:49.378Z,54.45
2018-09-10T21:16:18.383Z,53.08
2018-09-10T21:18:47.474Z,54.71
2018-09-10T21:21:16.735Z,53.62
2018-09-10T21:23:45.833Z,52.50
2018-09-10T21:26:14.862Z,53.72
2018-09-10T21:28:43.839Z,55.43
2018-09-10T21:31:12.943Z,56.04
2018-09-10T21:33:41.885Z,54.00
2018-09-10T21:36:10.838Z,54.12
2018-09-10T21:38:39.782Z,54.80
2018-09-10T21:41:08.955Z,55.71
2018-09-10T21:43:37.871Z,54.62
2018-09-10T21:46:07.145Z,54.65
2018-09-10T21:48:36.062Z,55.88
2018-09-10T21:53:57.855Z,56.78
2018-09-10T21:56:26.901Z,55.83
2018-09-10T21:58:55.844Z,56.39
2018-09-10T22:01:24.888Z,56.36
2018-09-10T22:03:53.965Z,56.98
2018-09-10T22:06:22.868Z,57.27
2018-09-10T22:08:51.983Z,57.12
2018-09-10T22:11:20.953Z,56.74
2018-09-10T22:13:49.868Z,57.58
2018-09-10T22:16:18.837Z,57.78
2018-09-10T22:18:47.928Z,56.73
2018-09-10T22:21:16.869Z,58.85
2018-09-10T22:23:45.827Z,58.11
2018-09-10T22:26:14.758Z,56.88
2018-09-10T22:28:43.730Z,58.39
2018-09-10T22:31:12.676Z,58.07
2018-09-10T22:33:41.609Z,58.24
2018-09-10T22:36:10.660Z,57.92
2018-09-10T22:38:39.581Z,57.31
2018-09-10T22:41:08.521Z,57.66
2018-09-10T22:43:37.511Z,58.44
2018-09-10T22:46:06.731Z,56.93
2018-09-10T22:48:36.034Z,58.58
2018-09-10T22:51:05.006Z,59.81
2018-09-10T22:53:33.984Z,58.02
2018-09-10T22:56:02.917Z,59.88
2018-09-10T22:58:31.962Z,60.05
2018-09-10T23:01:00.915Z,59.01
2018-09-10T23:03:29.857Z,59.39
2018-09-10T23:05:58.920Z,60.73
2018-09-10T23:08:28.102Z,59.24
2018-09-10T23:10:57.169Z,59.90
2018-09-10T23:13:26.166Z,59.00
2018-09-10T23:15:55.549Z,58.49
2018-09-10T23:18:24.836Z,60.04
2018-09-10T23:20:54.043Z,59.21
2018-09-10T23:23:23.014Z,59.98
2018-09-10T23:25:51.953Z,60.00
2018-09-10T23:28:20.897Z,60.10
2018-09-10T23:30:49.833Z,60.26
2018-09-10T23:33:18.764Z,60.04
2018-09-10T23:35:47.696Z,61.53
2018-09-10T23:38:16.695Z,61.14
2018-09-10T23:40:45.607Z,60.40
2018-09-10T23:43:14.583Z,62.01
2018-09-10T23:45:43.508Z,62.10
2018-09-10T23:48:12.436Z,61.39
2018-09-10T23:50:41.360Z,62.37
2018-09-10T23:53:10.365Z,61.20
2018-09-10T23:55:39.288Z,60.77
2018-09-10T23:58:08.333Z,61.87
